KSAT

San Antonio International Airport

San Antonio, Texas, USA
METAR KSAT 260351Z 10006KT 10SM FEW250 27/19 A2991 RMK AO2 SLP111 CB OCNL LTG DSNT NW T02670189
Observed Flight Rules
May-26 @ 03:51 UTC (30 minutes ago) Visual Flight Rules
Wind Visibility Clouds
100° at 6 knots 10 miles
  • Few at 25,000' AGL
Temperatures Readings
Current 27°C / 81°F
Dewpoint 19°C / 66°F
Humidity 62%
Altimeter 29.91" Hg
Pressure 1011.1 hPa
Elevation 243
METAR KSAT 260351Z 10006KT 10SM FEW250 27/19 A2991 RMK AO2 SLP111 CB OCNL LTG DSNT NW T02670189
Observed Flight Rules
May-26 @ 03:51 UTC
(30 minutes ago)
VFR
Wind Visibility
100° at 6 knots 10 miles
Clouds
  • Few at 25,000' AGL
Temperature Dewpoint
27°C / 81°F 19°C / 66°F
Humidity Altimeter Pressure
62% 29.91" Hg 1011.1 hPa